Time;durP1;ratioP1;P1;durP2;ratioP2;P2;SDS_P1;SDS_P2;PMS_P1;PMS_P2;Temp;Humidity;BMP_temperature;BMP_pressure;BME280_temperature;BME280_humidity;BME280_pressure;Samples;Min_cycle;Max_cycle;Signal;HPM_P1;HPM_P2
2023/03/14 00:00:08;;;;;;;8.60;2.08;;;;;;;12.24;100.00;100980.03;2092379;28;20040;-79
2023/03/14 00:01:31;;;;;;;12.73;2.63;;;;;;;12.22;100.00;100984.41;2095316;28;20044;-79
2023/03/14 00:02:54;;;;;;;8.45;1.52;;;;;;;12.22;100.00;100980.88;2089046;28;20037;-80
2023/03/14 00:04:16;;;;;;;10.45;2.17;;;;;;;12.20;100.00;100985.28;2094983;28;20094;-79
2023/03/14 00:05:38;;;;;;;8.55;2.38;;;;;;;12.18;100.00;100974.66;2081368;28;20033;-79
2023/03/14 00:07:00;;;;;;;8.27;1.98;;;;;;;12.15;100.00;100985.19;2092131;28;20507;-79
2023/03/14 00:08:23;;;;;;;9.05;2.53;;;;;;;12.12;100.00;100982.53;2088983;28;20095;-80
2023/03/14 00:09:45;;;;;;;10.55;2.25;;;;;;;12.10;100.00;100976.31;2095159;28;20147;-79
2023/03/14 00:11:08;;;;;;;10.27;1.95;;;;;;;12.09;100.00;100976.28;2089051;28;20041;-80
2023/03/14 00:12:30;;;;;;;8.40;1.98;;;;;;;12.06;100.00;100979.81;2094585;28;20048;-78
2023/03/14 00:13:53;;;;;;;8.77;2.13;;;;;;;12.05;100.00;100987.72;2089444;28;20052;-79
2023/03/14 00:15:15;;;;;;;8.38;2.13;;;;;;;12.01;100.00;100980.63;2086409;28;20052;-79
2023/03/14 00:16:37;;;;;;;8.40;1.77;;;;;;;11.96;100.00;100972.59;2089724;28;20040;-78
2023/03/14 00:18:01;;;;;;;10.63;1.80;;;;;;;11.97;100.00;100980.56;2094766;28;20087;-79
2023/03/14 00:19:22;;;;;;;9.43;2.45;;;;;;;11.96;100.00;100962.91;2095126;28;20093;-80
2023/03/14 00:20:44;;;;;;;6.68;2.10;;;;;;;11.93;100.00;100973.47;2094685;28;20496;-79
2023/03/14 00:22:05;;;;;;;10.93;2.40;;;;;;;11.92;100.00;100976.97;2094773;28;20037;-80
2023/03/14 00:23:28;;;;;;;10.05;2.05;;;;;;;11.90;100.00;100975.16;2094540;28;20052;-80
2023/03/14 00:24:51;;;;;;;9.63;2.50;;;;;;;11.89;100.00;100974.28;2094752;28;20075;-80
2023/03/14 00:26:15;;;;;;;8.23;2.22;;;;;;;11.89;100.00;100971.63;2095007;28;20052;-79
2023/03/14 00:27:37;;;;;;;7.43;1.63;;;;;;;11.90;100.00;100964.59;2094752;28;20489;-79
2023/03/14 00:29:01;;;;;;;8.98;1.70;;;;;;;11.88;100.00;100972.50;2094621;28;20095;-79
2023/03/14 00:30:22;;;;;;;10.50;1.98;;;;;;;11.88;100.00;100964.56;2095030;28;20041;-80
2023/03/14 00:31:44;;;;;;;10.02;1.83;;;;;;;11.86;100.00;100974.25;2086064;28;20057;-79
2023/03/14 00:33:07;;;;;;;11.18;2.33;;;;;;;11.88;100.00;100963.69;2091691;28;20094;-79
2023/03/14 00:34:30;;;;;;;14.32;2.15;;;;;;;11.85;100.00;100967.19;2094925;28;20083;-79
2023/03/14 00:35:55;;;;;;;9.43;2.10;;;;;;;11.85;100.00;100977.75;2094138;28;20468;-80
2023/03/14 00:37:18;;;;;;;7.15;1.98;;;;;;;11.84;100.00;100957.47;2094883;28;20143;-79
2023/03/14 00:38:42;;;;;;;8.40;2.22;;;;;;;11.84;100.00;100959.22;2094922;28;20508;-79
2023/03/14 00:40:06;;;;;;;13.25;1.88;;;;;;;11.84;100.00;100969.81;2095014;28;20512;-79
2023/03/14 00:41:27;;;;;;;7.78;1.67;;;;;;;11.84;100.00;100953.94;2097354;28;20097;-79
2023/03/14 00:42:50;;;;;;;10.55;1.95;;;;;;;11.83;100.00;100950.38;2086066;28;20095;-79
2023/03/14 00:44:12;;;;;;;9.57;1.73;;;;;;;11.83;100.00;100934.53;2083755;28;20555;-79
2023/03/14 00:45:35;;;;;;;10.35;1.90;;;;;;;11.84;100.00;100940.69;2084058;28;20056;-78
2023/03/14 00:46:56;;;;;;;7.57;1.88;;;;;;;11.85;100.00;100932.78;2086554;28;20036;-79
2023/03/14 00:48:21;;;;;;;10.68;2.58;;;;;;;11.84;100.00;100936.31;2091567;28;20098;-78
2023/03/14 00:49:44;;;;;;;8.02;1.92;;;;;;;11.83;100.00;100928.34;2086616;28;20041;-78
2023/03/14 00:51:08;;;;;;;6.95;1.73;;;;;;;11.83;100.00;100923.06;2092503;28;20520;-79
2023/03/14 00:52:30;;;;;;;8.23;1.70;;;;;;;11.82;100.00;100930.09;2086125;28;20076;-78
2023/03/14 00:53:53;;;;;;;6.47;2.13;;;;;;;11.82;100.00;100924.81;2083926;28;20049;-79
2023/03/14 00:55:16;;;;;;;9.05;2.65;;;;;;;11.82;100.00;100932.75;2094910;28;20059;-79
2023/03/14 00:56:38;;;;;;;10.75;1.65;;;;;;;11.83;100.00;100926.59;2085804;28;20049;-79
2023/03/14 00:57:59;;;;;;;7.35;1.60;;;;;;;11.85;100.00;100931.91;2092026;28;20476;-80
2023/03/14 00:59:22;;;;;;;6.90;1.50;;;;;;;11.86;100.00;100929.28;2086519;28;20063;-79
2023/03/14 01:00:44;;;;;;;9.23;2.17;;;;;;;11.88;100.00;100931.97;2094553;28;20105;-79
2023/03/14 01:02:07;;;;;;;8.85;1.60;;;;;;;11.88;100.00;100927.53;2088787;28;20515;-79
2023/03/14 01:03:29;;;;;;;12.82;1.73;;;;;;;11.88;100.00;100927.53;2094749;28;20070;-79
2023/03/14 01:04:52;;;;;;;10.32;2.53;;;;;;;11.88;100.00;100921.38;2094638;28;20052;-79
2023/03/14 01:06:15;;;;;;;8.50;1.83;;;;;;;11.91;100.00;100926.69;2094726;28;20048;-79
2023/03/14 01:07:38;;;;;;;10.02;1.85;;;;;;;11.95;100.00;100917.91;2088906;28;20053;-80
2023/03/14 01:09:01;;;;;;;10.32;2.50;;;;;;;12.03;100.00;100920.66;2094505;28;20072;-79
2023/03/14 01:10:23;;;;;;;11.43;1.92;;;;;;;12.11;100.00;100908.41;2094808;28;20060;-79
2023/03/14 01:11:46;;;;;;;10.35;1.88;;;;;;;12.17;100.00;100913.78;2102561;28;20139;-80
2023/03/14 01:13:09;;;;;;;9.88;2.13;;;;;;;12.24;100.00;100907.69;2096747;28;20056;-79
2023/03/14 01:14:31;;;;;;;8.05;1.60;;;;;;;12.29;100.00;100906.84;2094896;28;20071;-80
2023/03/14 01:15:53;;;;;;;12.68;1.92;;;;;;;12.33;100.00;100899.84;2088871;28;20053;-79
2023/03/14 01:17:15;;;;;;;13.23;2.20;;;;;;;12.34;100.00;100901.59;2086177;28;20041;-79
2023/03/14 01:18:39;;;;;;;11.27;1.70;;;;;;;12.34;100.00;100905.13;2077875;28;20057;-79
2023/03/14 01:20:04;;;;;;;12.27;2.75;;;;;;;12.31;100.00;100902.47;2075952;28;20132;-80
2023/03/14 01:21:29;;;;;;;10.10;2.13;;;;;;;12.29;100.00;100911.25;2084241;28;20049;-80
2023/03/14 01:22:51;;;;;;;9.52;1.85;;;;;;;12.25;100.00;100897.13;2086590;28;20049;-79
2023/03/14 01:24:14;;;;;;;12.48;2.38;;;;;;;12.21;100.00;100894.41;2077976;28;20046;-79
2023/03/14 01:25:40;;;;;;;9.02;1.80;;;;;;;12.19;100.00;100896.16;2083461;28;20584;-79
2023/03/14 01:27:03;;;;;;;9.15;2.42;;;;;;;12.14;100.00;100892.59;2086945;28;20107;-80
2023/03/14 01:28:25;;;;;;;10.10;2.15;;;;;;;12.13;100.00;100890.81;2078104;28;20041;-80
2023/03/14 01:29:47;;;;;;;10.95;2.28;;;;;;;12.11;100.00;100908.41;2075368;28;20157;-79
2023/03/14 01:31:10;;;;;;;9.70;1.90;;;;;;;12.10;100.00;100911.94;2084155;28;20073;-80
2023/03/14 01:32:32;;;;;;;10.43;1.80;;;;;;;12.07;100.00;100922.50;2085772;28;20390;-79
2023/03/14 01:33:56;;;;;;;9.77;2.13;;;;;;;12.05;100.00;100916.28;2094303;28;20177;-79
2023/03/14 01:35:19;;;;;;;10.10;2.22;;;;;;;12.00;100.00;100915.34;2080746;28;20409;-79
2023/03/14 01:36:40;;;;;;;12.15;2.25;;;;;;;11.98;100.00;100925.91;2078023;28;20045;-79
2023/03/14 01:38:03;;;;;;;8.30;1.77;;;;;;;11.96;100.00;100925.88;2091741;28;20052;-79
2023/03/14 01:39:25;;;;;;;10.38;2.20;;;;;;;11.96;100.00;100920.59;2080542;28;20046;-81
2023/03/14 01:40:48;;;;;;;6.93;1.50;;;;;;;11.95;100.00;100929.38;2086076;28;20060;-80
2023/03/14 01:42:10;;;;;;;11.82;2.13;;;;;;;11.94;100.00;100932.94;2077920;28;20053;-79
2023/03/14 01:43:32;;;;;;;9.52;1.65;;;;;;;11.91;100.00;100929.34;2084068;28;20049;-79
2023/03/14 01:44:59;;;;;;;8.50;1.33;;;;;;;11.87;100.00;100915.19;2085678;28;20045;-80
2023/03/14 01:46:40;;;;;;;10.90;2.10;;;;;;;11.86;100.00;100904.59;2080166;28;20092;-80
2023/03/14 01:48:02;;;;;;;11.75;2.38;;;;;;;11.84;100.00;100923.06;2080536;28;20058;-79
2023/03/14 01:49:33;;;;;;;9.25;1.65;;;;;;;11.87;100.00;100924.88;2083607;28;20067;-79
2023/03/14 01:51:00;;;;;;;11.88;2.72;;;;;;;11.87;100.00;100925.78;2080378;28;20038;-80
2023/03/14 01:52:25;;;;;;;7.05;1.70;;;;;;;11.87;100.00;100920.50;2083950;28;20064;-80
2023/03/14 01:53:49;;;;;;;9.70;1.65;;;;;;;11.86;100.00;100916.06;2078309;28;20053;-79
2023/03/14 01:55:16;;;;;;;12.38;1.80;;;;;;;11.87;100.00;100920.50;2075661;28;20048;-80
2023/03/14 01:56:39;;;;;;;10.00;2.22;;;;;;;11.86;100.00;100918.72;2076787;28;20057;-79
2023/03/14 01:58:04;;;;;;;10.75;1.80;;;;;;;11.85;100.00;100922.22;2084015;28;20051;-80
2023/03/14 01:59:28;;;;;;;8.88;1.70;;;;;;;11.86;100.00;100918.72;2079041;28;20046;-79
2023/03/14 02:00:50;;;;;;;11.95;2.00;;;;;;;11.87;100.00;100907.25;2077060;28;20413;-79
2023/03/14 02:02:14;;;;;;;9.10;1.67;;;;;;;11.88;100.00;100918.72;2084652;28;20045;-78
2023/03/14 02:03:45;;;;;;;12.48;2.38;;;;;;;11.88;100.00;100911.66;2095943;28;20056;-79
2023/03/14 02:05:10;;;;;;;10.70;2.30;;;;;;;11.87;100.00;100930.19;2082027;28;20041;-79
2023/03/14 02:06:42;;;;;;;8.75;1.70;;;;;;;11.90;100.00;100935.50;2088091;28;20528;-79
2023/03/14 02:08:08;;;;;;;9.50;1.92;;;;;;;11.96;100.00;100936.47;2080354;28;20048;-79
2023/03/14 02:09:41;;;;;;;11.45;2.42;;;;;;;12.04;100.00;100946.25;2080049;28;20085;-79
2023/03/14 02:11:04;;;;;;;6.07;1.75;;;;;;;12.10;100.00;100927.81;2085661;28;20073;-79
2023/03/14 02:12:48;;;;;;;12.18;2.38;;;;;;;12.13;100.00;100941.97;2090226;28;20072;-79
2023/03/14 02:14:30;;;;;;;9.05;1.73;;;;;;;12.18;100.00;100940.25;2088911;28;20127;-79
2023/03/14 02:16:12;;;;;;;10.63;2.28;;;;;;;12.21;100.00;100931.44;2090025;28;20056;-81
2023/03/14 02:17:43;;;;;;;8.45;2.10;;;;;;;12.24;100.00;100942.97;2086555;28;20072;-79
2023/03/14 02:19:37;;;;;;;12.32;2.78;;;;;;;12.26;100.00;100933.31;2091725;28;20049;-79
2023/03/14 02:21:20;;;;;;;25.00;9.45;;;;;;;12.27;100.00;100936.84;2089845;28;20135;-79
2023/03/14 02:22:45;;;;;;;20.10;4.95;;;;;;;12.25;100.00;100943.88;2094246;28;20133;-79
2023/03/14 02:24:14;;;;;;;10.25;2.25;;;;;;;12.22;100.00;100936.78;2096049;28;20076;-79
2023/03/14 02:25:47;;;;;;;12.57;2.20;;;;;;;12.22;100.00;100943.81;2089186;28;20111;-79
2023/03/14 02:27:12;;;;;;;10.00;2.22;;;;;;;12.24;100.00;100952.69;2078489;28;20045;-80
2023/03/14 02:28:40;;;;;;;9.52;2.90;;;;;;;12.25;100.00;100957.09;2093340;28;20102;-79
2023/03/14 02:30:06;;;;;;;8.63;1.90;;;;;;;12.27;100.00;100950.09;2096093;28;20044;-80
2023/03/14 02:31:29;;;;;;;13.30;2.60;;;;;;;12.27;100.00;100952.72;2096229;28;20534;-79
2023/03/14 02:32:55;;;;;;;9.57;2.00;;;;;;;12.32;100.00;100956.31;2095294;28;20047;-79
2023/03/14 02:34:17;;;;;;;8.95;1.92;;;;;;;12.34;100.00;100960.72;2096318;28;20056;-79
2023/03/14 02:35:42;;;;;;;7.32;1.80;;;;;;;12.35;100.00;100959.88;2095370;28;20583;-79
2023/03/14 02:37:06;;;;;;;5.95;1.52;;;;;;;12.40;100.00;100961.69;2087602;28;20148;-79
2023/03/14 02:38:34;;;;;;;11.43;2.35;;;;;;;12.41;100.00;100951.09;2101329;28;20056;-79
2023/03/14 02:39:59;;;;;;;15.27;4.22;;;;;;;12.41;100.00;100955.50;2090350;28;20139;-79
2023/03/14 02:41:22;;;;;;;9.30;2.00;;;;;;;12.43;100.00;100961.72;2095548;28;20059;-79
2023/03/14 02:42:54;;;;;;;12.00;2.25;;;;;;;12.46;100.00;100960.00;2088382;28;20033;-79
2023/03/14 02:44:16;;;;;;;17.48;3.90;;;;;;;12.49;100.00;100964.44;2084971;28;20033;-79
2023/03/14 02:45:42;;;;;;;10.77;2.63;;;;;;;12.50;100.00;100956.50;2084761;28;20080;-79
2023/03/14 02:47:05;;;;;;;11.68;3.80;;;;;;;12.50;100.00;100956.50;2093876;28;20086;-79
2023/03/14 02:48:31;;;;;;;10.13;2.53;;;;;;;12.52;100.00;100953.88;2087731;28;20053;-80
2023/03/14 02:49:59;;;;;;;9.98;2.25;;;;;;;12.51;100.00;100950.34;2095956;28;20041;-80
2023/03/14 02:51:23;;;;;;;8.63;1.80;;;;;;;12.50;100.00;100952.97;2091445;28;20060;-79
2023/03/14 02:52:44;;;;;;;13.35;2.15;;;;;;;12.50;100.00;100950.31;2087072;28;20045;-79
2023/03/14 02:54:07;;;;;;;8.85;1.98;;;;;;;12.51;100.00;100946.81;2092438;28;20116;-79
2023/03/14 02:55:28;;;;;;;7.72;1.80;;;;;;;12.52;100.00;100956.53;2095431;28;20048;-79
2023/03/14 02:56:55;;;;;;;9.50;2.67;;;;;;;12.51;100.00;100947.69;2087626;28;20051;-79
2023/03/14 02:58:19;;;;;;;9.13;3.15;;;;;;;12.51;100.00;100955.63;2084691;28;20045;-78
2023/03/14 02:59:44;;;;;;;12.10;3.35;;;;;;;12.50;100.00;100945.91;2084905;28;20049;-79
2023/03/14 03:01:11;;;;;;;13.82;2.90;;;;;;;12.49;100.00;100949.44;2087981;28;20126;-79
2023/03/14 03:02:34;;;;;;;12.60;2.20;;;;;;;12.50;100.00;100945.03;2084457;28;20170;-78
2023/03/14 03:03:57;;;;;;;9.25;1.95;;;;;;;12.49;100.00;100941.47;2086861;28;20052;-79
2023/03/14 03:05:19;;;;;;;8.82;2.42;;;;;;;12.48;100.00;100934.41;2089955;28;20049;-79
2023/03/14 03:06:40;;;;;;;15.27;3.50;;;;;;;12.46;100.00;100946.75;2078734;28;20103;-79
2023/03/14 03:08:03;;;;;;;10.18;2.65;;;;;;;12.43;100.00;100945.81;2084392;28;20268;-79
2023/03/14 03:09:25;;;;;;;9.73;2.00;;;;;;;12.38;100.00;100943.13;2079127;28;20136;-78
2023/03/14 03:10:48;;;;;;;8.48;1.90;;;;;;;12.34;100.00;100949.25;2083246;28;20433;-79
2023/03/14 03:12:11;;;;;;;8.55;2.33;;;;;;;12.30;100.00;100950.09;2070561;28;20057;-79
2023/03/14 03:13:35;;;;;;;12.43;3.25;;;;;;;12.26;100.00;100945.66;2081964;28;20072;-79
2023/03/14 03:14:57;;;;;;;9.25;2.15;;;;;;;12.24;100.00;100953.56;2095657;28;20048;-79
2023/03/14 03:16:19;;;;;;;11.07;2.63;;;;;;;12.26;100.00;100954.47;2087799;28;20041;-79
2023/03/14 03:17:42;;;;;;;11.07;2.20;;;;;;;12.31;100.00;100949.22;2080755;28;20152;-79
2023/03/14 03:19:04;;;;;;;8.93;2.53;;;;;;;12.35;100.00;100958.97;2084311;28;20055;-79
2023/03/14 03:20:25;;;;;;;9.13;2.28;;;;;;;12.38;100.00;100961.66;2086889;28;20036;-79
2023/03/14 03:21:48;;;;;;;6.90;1.90;;;;;;;12.41;100.00;100947.56;2095109;28;20102;-79
2023/03/14 03:23:10;;;;;;;10.48;2.13;;;;;;;12.41;100.00;100940.50;2089648;28;20056;-79
2023/03/14 03:24:34;;;;;;;11.05;1.92;;;;;;;12.43;100.00;100944.06;2078808;28;20048;-79
2023/03/14 03:25:57;;;;;;;13.10;1.95;;;;;;;12.45;100.00;100949.38;2084637;28;20047;-79
2023/03/14 03:27:19;;;;;;;13.93;3.15;;;;;;;12.45;100.00;100936.16;2078287;28;20123;-80
2023/03/14 03:28:42;;;;;;;21.48;6.22;;;;;;;12.46;100.00;100943.22;2078891;28;20059;-79
2023/03/14 03:30:07;;;;;;;10.55;3.13;;;;;;;12.43;100.00;100935.22;2084816;28;20421;-79
2023/03/14 03:31:31;;;;;;;11.20;2.55;;;;;;;12.44;100.00;100958.19;2078836;28;20056;-80
2023/03/14 03:32:53;;;;;;;10.77;2.08;;;;;;;12.43;100.00;100941.41;2078630;28;20394;-80
2023/03/14 03:34:16;;;;;;;12.73;2.22;;;;;;;12.46;100.00;100956.47;2076311;28;20049;-80
2023/03/14 03:35:44;;;;;;;10.25;1.83;;;;;;;12.49;100.00;100948.53;2076179;28;20072;-79
2023/03/14 03:37:05;;;;;;;9.35;2.03;;;;;;;12.51;100.00;100953.00;2077444;28;20044;-79
2023/03/14 03:38:32;;;;;;;7.47;1.75;;;;;;;12.55;100.00;100956.53;2076828;28;20061;-79
2023/03/14 03:39:56;;;;;;;9.00;1.98;;;;;;;12.57;100.00;100952.16;2076519;28;20506;-79
2023/03/14 03:41:18;;;;;;;10.57;2.63;;;;;;;12.58;100.00;100953.94;2084440;28;20068;-79
2023/03/14 03:42:41;;;;;;;8.10;1.98;;;;;;;12.55;100.00;100941.53;2081272;28;20049;-79
2023/03/14 03:44:07;;;;;;;7.75;2.10;;;;;;;12.58;100.00;100956.59;2084735;28;20049;-78
2023/03/14 03:45:29;;;;;;;6.82;2.17;;;;;;;12.58;100.00;100933.66;2078378;28;20140;-79
2023/03/14 03:46:52;;;;;;;10.82;2.17;;;;;;;12.59;100.00;100939.84;2076341;28;20053;-79
2023/03/14 03:48:14;;;;;;;;;;;;;;;12.52;100.00;100944.19;2076224;28;20041;-79
2023/03/14 03:49:35;;;;;;;14.68;2.80;;;;;;;12.50;100.00;100940.63;2076015;28;19921;-79
2023/03/14 03:50:57;;;;;;;10.05;1.90;;;;;;;12.50;100.00;100937.09;2084181;28;20132;-79
2023/03/14 03:52:20;;;;;;;10.65;1.98;;;;;;;12.49;100.00;100944.13;2086407;28;20100;-79
2023/03/14 03:53:42;;;;;;;7.25;1.83;;;;;;;12.49;100.00;100938.84;2078463;28;20398;-80
2023/03/14 03:55:08;;;;;;;10.27;2.08;;;;;;;12.49;100.00;100943.25;2076970;28;20046;-79
2023/03/14 03:56:31;;;;;;;10.32;2.22;;;;;;;12.49;100.00;100944.13;2092718;28;20496;-78
2023/03/14 03:57:54;;;;;;;10.90;2.10;;;;;;;12.49;100.00;100954.72;2089222;28;20079;-80
2023/03/14 03:59:18;;;;;;;11.43;2.10;;;;;;;12.49;100.00;100957.38;2078114;28;20037;-79
2023/03/14 04:00:40;;;;;;;9.43;2.35;;;;;;;12.46;100.00;100952.06;2084520;28;20421;-79
2023/03/14 04:02:03;;;;;;;9.82;3.08;;;;;;;12.37;100.00;100954.59;2078572;28;20056;-79
2023/03/14 04:03:24;;;;;;;8.77;2.42;;;;;;;12.29;100.00;100965.09;2092118;28;20056;-79
2023/03/14 04:04:46;;;;;;;13.00;2.30;;;;;;;12.23;100.00;100956.19;2103148;28;20071;-79
2023/03/14 04:06:09;;;;;;;6.40;1.80;;;;;;;12.18;100.00;100949.97;2089349;28;20501;-79
2023/03/14 04:07:34;;;;;;;10.32;2.13;;;;;;;12.10;100.00;100954.25;2087033;28;20045;-78
2023/03/14 04:08:57;;;;;;;13.20;2.53;;;;;;;12.04;100.00;100947.13;2084086;28;20064;-78
2023/03/14 04:10:42;;;;;;;10.68;2.05;;;;;;;11.96;100.00;100951.44;2097496;28;20389;-78
2023/03/14 04:12:07;;;;;;;11.23;2.28;;;;;;;11.90;100.00;100954.00;2089288;28;20045;-79
2023/03/14 04:13:49;;;;;;;15.40;2.35;;;;;;;11.85;100.00;100958.34;2088789;28;20419;-79
2023/03/14 04:15:13;;;;;;;7.75;1.60;;;;;;;11.86;100.00;100954.84;2086712;28;20044;-79
2023/03/14 04:16:41;;;;;;;14.30;3.15;;;;;;;11.86;100.00;100954.84;2089342;28;20040;-79
2023/03/14 04:18:11;;;;;;;10.23;2.40;;;;;;;11.91;100.00;100958.44;2089225;28;20048;-79
2023/03/14 04:19:36;;;;;;;11.32;2.13;;;;;;;11.95;100.00;100957.59;2084144;28;20045;-78
2023/03/14 04:20:59;;;;;;;12.30;2.00;;;;;;;12.00;100.00;100963.84;2083891;28;20037;-78
2023/03/14 04:22:30;;;;;;;12.43;2.38;;;;;;;12.01;100.00;100957.72;2094401;28;20044;-77
2023/03/14 04:23:51;;;;;;;12.60;2.55;;;;;;;12.00;100.00;100947.09;2086339;28;20056;-78
2023/03/14 04:25:17;;;;;;;9.63;2.58;;;;;;;12.03;100.00;100963.00;2083938;28;20048;-78
2023/03/14 04:26:42;;;;;;;9.90;3.58;;;;;;;12.06;100.00;100953.34;2085648;28;20045;-79
2023/03/14 04:28:06;;;;;;;12.82;3.42;;;;;;;12.10;100.00;100956.91;2084108;28;20041;-79
2023/03/14 04:29:29;;;;;;;11.05;2.25;;;;;;;12.17;100.00;100958.75;2084135;28;20059;-79
2023/03/14 04:30:53;;;;;;;7.97;2.08;;;;;;;12.18;100.00;100950.84;2083851;28;20094;-78
2023/03/14 04:32:18;;;;;;;8.13;2.10;;;;;;;12.20;100.00;100964.09;2084694;28;20524;-78
2023/03/14 04:33:40;;;;;;;9.88;2.72;;;;;;;12.21;100.00;100958.81;2083484;28;20060;-78
2023/03/14 04:35:03;;;;;;;10.23;2.00;;;;;;;12.23;100.00;100953.53;2083963;28;20090;-78
2023/03/14 04:36:26;;;;;;;7.57;2.20;;;;;;;12.26;100.00;100958.88;2091901;28;20094;-79
2023/03/14 04:37:48;;;;;;;7.35;1.92;;;;;;;12.25;100.00;100959.75;2086159;28;20061;-79
2023/03/14 04:39:12;;;;;;;9.30;2.30;;;;;;;12.26;100.00;100966.81;2092501;28;20076;-78
2023/03/14 04:40:39;;;;;;;9.60;2.78;;;;;;;12.23;100.00;100966.78;2086631;28;20208;-78
2023/03/14 04:42:03;;;;;;;11.82;2.72;;;;;;;12.19;100.00;100971.16;2086312;28;20045;-79
2023/03/14 04:43:25;;;;;;;9.20;2.80;;;;;;;12.19;100.00;100973.81;2092319;28;20053;-79
2023/03/14 04:44:51;;;;;;;13.68;3.70;;;;;;;12.21;100.00;100982.63;2086912;28;20063;-78
2023/03/14 04:46:19;;;;;;;6.78;1.83;;;;;;;12.22;100.00;100976.47;2086592;28;20045;-79
2023/03/14 04:47:41;;;;;;;8.20;1.75;;;;;;;12.23;100.00;100980.00;2092503;28;20139;-79
2023/03/14 04:49:06;;;;;;;11.50;2.15;;;;;;;12.25;100.00;100981.81;2089003;28;20049;-79
2023/03/14 04:50:28;;;;;;;6.35;2.15;;;;;;;12.29;100.00;100973.03;2091774;28;20040;-79
2023/03/14 04:51:51;;;;;;;11.13;3.13;;;;;;;12.31;100.00;100976.59;2094900;28;20056;-79
2023/03/14 04:53:13;;;;;;;10.38;2.20;;;;;;;12.36;100.00;100980.19;2086273;28;20111;-80
2023/03/14 04:54:38;;;;;;;17.10;7.30;;;;;;;12.42;100.00;100981.09;2086243;28;20098;-79
2023/03/14 04:55:59;;;;;;;9.32;2.63;;;;;;;12.44;100.00;100971.44;2086229;28;20072;-78
2023/03/14 04:57:29;;;;;;;8.85;1.90;;;;;;;12.48;100.00;100973.22;2085071;28;20401;-78
2023/03/14 04:58:51;;;;;;;8.82;1.70;;;;;;;12.49;100.00;100986.50;2083618;28;20048;-78
2023/03/14 05:00:13;;;;;;;8.63;2.00;;;;;;;12.52;100.00;100990.94;2083923;28;20053;-79
2023/03/14 05:02:00;;;;;;;6.57;1.63;;;;;;;12.54;100.00;100986.53;2088680;28;20041;-79
2023/03/14 05:03:45;;;;;;;12.25;1.98;;;;;;;12.57;100.00;100984.84;2088519;28;20052;-78
2023/03/14 05:05:37;;;;;;;6.95;1.75;;;;;;;12.59;100.00;100995.44;2083977;28;20047;-79
2023/03/14 05:07:30;;;;;;;7.00;2.00;;;;;;;12.59;100.00;100991.03;2080609;28;20061;-77
2023/03/14 05:09:04;;;;;;;8.80;2.17;;;;;;;12.61;100.00;100997.22;2086464;28;20094;-78
2023/03/14 05:10:37;;;;;;;7.85;1.95;;;;;;;12.60;100.00;100982.19;2079630;28;20105;-79
2023/03/14 05:12:20;;;;;;;8.70;2.17;;;;;;;12.61;100.00;100988.38;2097282;28;20052;-79
2023/03/14 05:14:03;;;;;;;9.68;2.28;;;;;;;12.59;100.00;100980.44;2073883;28;20061;-79
2023/03/14 05:15:43;;;;;;;7.90;1.75;;;;;;;12.60;100.00;100986.63;2096971;28;20613;-78
2023/03/14 05:17:20;;;;;;;6.68;2.00;;;;;;;12.62;100.00;100976.94;2080658;28;20077;-79
2023/03/14 05:19:02;;;;;;;10.80;4.30;;;;;;;12.64;100.00;100991.97;2089015;28;20501;-79
2023/03/14 05:20:42;;;;;;;9.25;3.10;;;;;;;12.67;100.00;100996.41;2080405;28;20056;-78
2023/03/14 05:22:28;;;;;;;12.77;2.53;;;;;;;12.68;100.00;100999.06;2088660;28;20072;-79
2023/03/14 05:24:06;;;;;;;10.32;1.80;;;;;;;12.71;100.00;100996.47;2087828;28;20087;-79
2023/03/14 05:25:51;;;;;;;12.40;2.15;;;;;;;12.76;100.00;101007.09;2088813;28;20053;-79
2023/03/14 05:27:39;;;;;;;7.45;1.73;;;;;;;12.76;100.00;101002.69;2088962;28;20045;-78
2023/03/14 05:29:27;;;;;;;7.80;2.08;;;;;;;12.77;100.00;101007.13;2089049;28;20049;-79
2023/03/14 05:31:12;;;;;;;8.68;1.65;;;;;;;12.78;100.00;101011.56;2088737;28;20445;-79
2023/03/14 05:33:02;;;;;;;10.23;2.03;;;;;;;12.80;100.00;100993.00;2088414;28;20068;-78
2023/03/14 05:34:43;;;;;;;12.40;2.88;;;;;;;12.78;100.00;101011.56;2097988;28;20052;-79
2023/03/14 05:36:37;;;;;;;7.90;1.83;;;;;;;12.82;100.00;101016.88;2073487;28;20490;-78
2023/03/14 05:38:22;;;;;;;9.85;2.40;;;;;;;12.85;100.00;101022.22;2081970;28;20509;-78
2023/03/14 05:39:59;;;;;;;9.10;1.92;;;;;;;12.89;100.00;101018.72;2097772;28;20056;-78
2023/03/14 05:41:35;;;;;;;8.45;1.70;;;;;;;12.89;100.00;101018.72;2082245;28;20053;-78
2023/03/14 05:43:36;;;;;;;12.23;1.73;;;;;;;12.90;100.00;101018.75;2082223;28;20524;-79
2023/03/14 05:45:24;;;;;;;8.80;1.88;;;;;;;12.90;100.00;101020.50;2090050;28;20492;-78
2023/03/14 05:47:18;;;;;;;13.32;1.70;;;;;;;12.89;100.00;101024.91;2088264;28;20053;-78
2023/03/14 05:48:54;;;;;;;8.68;1.70;;;;;;;12.92;100.00;101026.72;2088919;28;20056;-78
2023/03/14 05:50:48;;;;;;;7.60;2.10;;;;;;;12.90;100.00;101033.75;2065652;28;20074;-77
2023/03/14 05:52:23;;;;;;;12.45;1.48;;;;;;;12.91;100.00;101032.88;2081271;28;20049;-78
2023/03/14 05:54:05;;;;;;;9.63;1.95;;;;;;;12.88;100.00;101041.66;2082046;28;20045;-78
2023/03/14 05:55:48;;;;;;;10.18;1.98;;;;;;;12.91;100.00;101041.72;2090237;28;20516;-78
2023/03/14 05:57:16;;;;;;;6.18;1.48;;;;;;;12.95;100.00;101039.97;2080080;28;20052;-78
2023/03/14 05:59:07;;;;;;;9.40;1.83;;;;;;;13.00;100.00;101043.53;2090043;28;20040;-78
2023/03/14 06:01:03;;;;;;;7.13;1.60;;;;;;;13.02;100.00;101050.66;2081669;28;20141;-79
2023/03/14 06:02:46;;;;;;;8.73;1.58;;;;;;;13.03;100.00;101052.44;2096029;28;20040;-79
2023/03/14 06:04:18;;;;;;;4.43;1.40;;;;;;;13.05;100.00;101056.00;2090156;28;20033;-79
2023/03/14 06:05:45;;;;;;;6.70;1.38;;;;;;;13.09;100.00;101063.09;2079485;28;20306;-78
2023/03/14 06:07:07;;;;;;;7.68;1.73;;;;;;;13.09;100.00;101039.25;2085009;28;20055;-79
2023/03/14 06:08:30;;;;;;;7.35;1.75;;;;;;;13.09;100.00;101056.91;2079200;28;20057;-79
2023/03/14 06:09:51;;;;;;;7.85;1.65;;;;;;;13.10;100.00;101042.78;2084769;28;20564;-78
2023/03/14 06:11:15;;;;;;;10.20;1.55;;;;;;;13.12;100.00;101044.63;2079186;28;20076;-78
2023/03/14 06:12:37;;;;;;;7.47;2.78;;;;;;;13.15;100.00;101054.34;2076041;28;20057;-78
2023/03/14 06:13:59;;;;;;;7.85;1.63;;;;;;;13.17;100.00;101036.69;2093157;28;20071;-79
2023/03/14 06:15:25;;;;;;;8.73;1.95;;;;;;;13.22;100.00;101050.88;2091810;28;20043;-78
2023/03/14 06:16:50;;;;;;;8.60;1.90;;;;;;;13.27;100.00;101049.16;2089786;28;20386;-78
2023/03/14 06:18:14;;;;;;;6.30;1.45;;;;;;;13.30;100.00;101050.97;2079469;28;20044;-76
2023/03/14 06:19:39;;;;;;;9.77;2.58;;;;;;;13.31;100.00;101050.97;2076715;28;20049;-77
2023/03/14 06:21:01;;;;;;;7.50;1.45;;;;;;;13.35;100.00;101052.78;2081543;28;20048;-77
2023/03/14 06:22:23;;;;;;;8.20;2.13;;;;;;;13.41;100.00;101049.28;2092893;28;20088;-78
2023/03/14 06:23:45;;;;;;;6.68;1.67;;;;;;;13.47;100.00;101062.59;2087423;28;20040;-78
2023/03/14 06:25:08;;;;;;;10.13;1.85;;;;;;;13.52;100.00;101055.59;2087094;28;20032;-77
2023/03/14 06:26:30;;;;;;;9.52;2.15;;;;;;;13.55;100.00;101060.91;2095066;28;20056;-78
2023/03/14 06:27:52;;;;;;;7.45;2.75;;;;;;;13.56;100.00;101065.34;2095418;28;20057;-78
2023/03/14 06:29:14;;;;;;;9.05;3.25;;;;;;;13.53;100.00;101057.34;2087167;28;20036;-77
2023/03/14 06:30:36;;;;;;;9.32;1.58;;;;;;;13.51;100.00;101060.00;2084807;28;20162;-77
2023/03/14 06:31:58;;;;;;;9.40;2.65;;;;;;;13.53;100.00;101068.84;2084655;28;20516;-77
2023/03/14 06:33:22;;;;;;;9.75;2.20;;;;;;;13.54;100.00;101064.41;2092765;28;20641;-77
2023/03/14 06:34:46;;;;;;;7.38;1.73;;;;;;;13.56;100.00;101063.56;2089853;28;20049;-77
2023/03/14 06:36:10;;;;;;;7.47;1.90;;;;;;;13.63;100.00;101064.50;2085034;28;20049;-77
2023/03/14 06:37:36;;;;;;;9.63;2.13;;;;;;;13.68;100.00;101083.09;2087870;28;20041;-78